Time;durP1;ratioP1;P1;durP2;ratioP2;P2;SDS_P1;SDS_P2;PMS_P1;PMS_P2;Temp;Humidity;BMP_temperature;BMP_pressure;BME280_temperature;BME280_humidity;BME280_pressure;Samples;Min_cycle;Max_cycle;Signal;HPM_P1;HPM_P2
2023/06/26 00:00:05;;;;;;;8.53;7.63;;;18.80;99.90;;;;;;5022095;28;20220;-76
2023/06/26 00:02:32;;;;;;;9.03;8.10;;;18.80;99.90;;;;;;5021990;28;20188;-76
2023/06/26 00:05:02;;;;;;;10.43;8.30;;;18.70;99.90;;;;;;5021429;28;20185;-76
2023/06/26 00:07:29;;;;;;;8.50;7.40;;;18.60;99.90;;;;;;5020850;28;20189;-77
2023/06/26 00:09:58;;;;;;;9.10;8.13;;;18.60;99.90;;;;;;5020728;28;20534;-77
2023/06/26 00:12:27;;;;;;;8.57;7.87;;;18.60;99.90;;;;;;5021131;28;20262;-77
2023/06/26 00:14:55;;;;;;;8.20;7.40;;;18.60;99.90;;;;;;5021774;28;20181;-77
2023/06/26 00:17:22;;;;;;;8.97;7.53;;;18.60;99.90;;;;;;5021994;28;20213;-76
2023/06/26 00:19:51;;;;;;;8.70;7.90;;;18.50;99.90;;;;;;5022254;28;20220;-76
2023/06/26 00:22:18;;;;;;;8.50;7.70;;;18.60;99.90;;;;;;5022403;28;20180;-76
2023/06/26 00:24:46;;;;;;;8.17;7.27;;;18.50;99.90;;;;;;5004851;28;20191;-77
2023/06/26 00:27:17;;;;;;;9.73;7.87;;;18.50;99.90;;;;;;5020477;28;20210;-77
2023/06/26 00:29:48;;;;;;;11.20;8.27;;;18.50;99.90;;;;;;5026773;28;20172;-77
2023/06/26 00:32:15;;;;;;;10.17;8.37;;;18.50;99.90;;;;;;5005447;28;20176;-76
2023/06/26 00:34:41;;;;;;;8.70;7.80;;;18.50;99.90;;;;;;5021951;28;20208;-76
2023/06/26 00:37:07;;;;;;;8.50;7.60;;;18.50;99.90;;;;;;5024634;28;20180;-78
2023/06/26 00:39:33;;;;;;;8.70;7.90;;;18.50;99.90;;;;;;5036526;28;20201;-77
2023/06/26 00:42:00;;;;;;;9.50;7.97;;;18.50;99.90;;;;;;5033094;28;20200;-78
2023/06/26 00:44:31;;;;;;;8.10;7.30;;;18.50;99.90;;;;;;5032418;28;20203;-78
2023/06/26 00:46:57;;;;;;;8.43;7.63;;;18.50;99.90;;;;;;5047305;28;20177;-79
2023/06/26 00:49:25;;;;;;;9.10;7.83;;;18.50;99.90;;;;;;5040030;28;20176;-77
2023/06/26 00:52:03;;;;;;;7.90;7.17;;;18.50;99.90;;;;;;5040898;28;20181;-79
2023/06/26 00:58:41;;;;;;;9.30;8.30;;;18.40;99.90;;;;;;4889563;29;20225;-77
2023/06/26 01:01:14;;;;;;;8.93;7.80;;;18.30;99.90;;;;;;4888263;29;20633;-76
2023/06/26 01:03:41;;;;;;;8.80;7.83;;;18.20;99.90;;;;;;4857855;29;20605;-78
2023/06/26 01:06:11;;;;;;;8.73;7.83;;;18.20;99.90;;;;;;4887702;29;20757;-77
2023/06/26 01:08:39;;;;;;;9.10;7.93;;;18.20;99.90;;;;;;4886080;29;20194;-78
2023/06/26 01:11:05;;;;;;;9.87;7.67;;;18.20;99.90;;;;;;4871089;29;20248;-79
2023/06/26 01:13:34;;;;;;;9.73;7.83;;;18.20;99.90;;;;;;4888701;29;20237;-77
2023/06/26 01:16:01;;;;;;;7.90;7.20;;;18.20;99.90;;;;;;4889456;29;20317;-75
2023/06/26 01:18:30;;;;;;;8.43;7.63;;;18.10;99.90;;;;;;4889044;29;20274;-77
2023/06/26 01:21:01;;;;;;;9.83;7.67;;;18.10;99.90;;;;;;4858067;29;20702;-77
2023/06/26 01:23:31;;;;;;;8.23;7.43;;;18.10;99.90;;;;;;4887552;29;20384;-76
2023/06/26 01:26:16;;;;;;;8.50;7.70;;;18.00;99.90;;;;;;4874056;29;20272;-79
2023/06/26 01:28:43;;;;;;;9.83;8.30;;;18.00;99.90;;;;;;4893207;29;20216;-77
2023/06/26 01:31:13;;;;;;;8.67;7.63;;;18.10;99.90;;;;;;4891968;29;20182;-76
2023/06/26 01:33:40;;;;;;;8.57;7.67;;;18.10;99.90;;;;;;4902465;29;20205;-78
2023/06/26 01:36:09;;;;;;;8.90;8.00;;;18.10;99.90;;;;;;4978822;28;20189;-78
2023/06/26 01:38:35;;;;;;;8.57;7.67;;;18.10;99.90;;;;;;4981677;28;20329;-77
2023/06/26 01:41:01;;;;;;;9.20;8.13;;;18.00;99.90;;;;;;4992291;28;20201;-76
2023/06/26 01:44:01;;;;;;;8.37;7.57;;;18.00;99.90;;;;;;4985260;28;20177;-78
2023/06/26 01:47:03;;;;;;;8.13;7.40;;;18.00;99.90;;;;;;5022337;28;20164;-78
2023/06/26 01:49:52;;;;;;;9.17;8.10;;;18.00;99.90;;;;;;4942030;29;20660;-77
2023/06/26 01:52:41;;;;;;;8.83;7.93;;;17.90;99.90;;;;;;4942547;29;20219;-77
2023/06/26 01:55:50;;;;;;;8.60;7.70;;;17.90;99.90;;;;;;4941125;29;20174;-77
2023/06/26 01:58:18;;;;;;;8.53;7.70;;;17.80;99.90;;;;;;4885458;29;20193;-76
2023/06/26 02:00:44;;;;;;;9.07;8.17;;;17.90;99.90;;;;;;4885988;29;20662;-77
2023/06/26 02:03:10;;;;;;;8.73;7.93;;;17.80;99.90;;;;;;4886916;29;20266;-76
2023/06/26 02:05:36;;;;;;;7.80;7.10;;;17.70;99.90;;;;;;4887700;29;20204;-77
2023/06/26 02:08:02;;;;;;;9.37;7.90;;;17.70;99.90;;;;;;4887190;29;20178;-78
2023/06/26 02:10:28;;;;;;;10.30;8.33;;;17.70;99.90;;;;;;4885904;29;20178;-76
2023/06/26 02:12:55;;;;;;;9.20;7.97;;;17.70;99.90;;;;;;4886455;29;20194;-78
2023/06/26 02:15:24;;;;;;;10.03;8.50;;;17.70;99.90;;;;;;4886437;29;20206;-78
2023/06/26 02:17:49;;;;;;;9.00;8.10;;;17.70;99.90;;;;;;4888454;29;20201;-77
2023/06/26 02:20:15;;;;;;;9.63;8.40;;;17.70;99.90;;;;;;4891050;29;20224;-79
2023/06/26 02:22:45;;;;;;;9.77;8.50;;;17.70;99.90;;;;;;4881672;29;20208;-78
2023/06/26 02:25:12;;;;;;;8.80;7.90;;;17.70;99.90;;;;;;4906898;29;20290;-77
2023/06/26 02:27:38;;;;;;;10.63;8.17;;;17.70;99.90;;;;;;4942813;29;20195;-79
2023/06/26 02:30:07;;;;;;;10.67;8.17;;;17.80;99.90;;;;;;4942094;29;20183;-78
2023/06/26 02:32:33;;;;;;;9.43;8.43;;;17.80;99.90;;;;;;5005462;28;20183;-79
2023/06/26 02:34:59;;;;;;;10.87;8.17;;;17.80;99.90;;;;;;5036275;28;20177;-76
2023/06/26 02:37:28;;;;;;;9.67;8.07;;;17.90;99.90;;;;;;5021724;28;20218;-75
2023/06/26 02:39:54;;;;;;;8.30;7.53;;;17.90;99.90;;;;;;5021386;28;20216;-77
2023/06/26 02:42:20;;;;;;;8.60;7.80;;;17.90;99.90;;;;;;5003819;28;20181;-76
2023/06/26 02:44:46;;;;;;;8.67;7.77;;;17.90;99.90;;;;;;5020555;28;20209;-78
2023/06/26 02:47:11;;;;;;;8.50;7.70;;;17.90;99.90;;;;;;5021326;28;20169;-76
2023/06/26 02:49:43;;;;;;;8.40;7.60;;;17.80;99.90;;;;;;5020936;28;20589;-78
2023/06/26 02:52:09;;;;;;;8.60;7.77;;;17.80;99.90;;;;;;5020893;28;20167;-77
2023/06/26 02:54:34;;;;;;;9.90;8.03;;;17.70;99.90;;;;;;5003880;28;20196;-78
2023/06/26 02:57:03;;;;;;;8.90;8.03;;;17.70;99.90;;;;;;5028033;28;20171;-78
2023/06/26 02:59:30;;;;;;;9.37;7.77;;;17.70;99.90;;;;;;5034821;28;20205;-78
2023/06/26 03:01:56;;;;;;;10.03;8.47;;;17.70;99.90;;;;;;5022276;28;20184;-79
2023/06/26 03:04:22;;;;;;;9.17;8.23;;;17.60;99.90;;;;;;5020661;28;20643;-78
2023/06/26 03:06:50;;;;;;;10.97;8.07;;;17.70;99.90;;;;;;5020410;28;20266;-78
2023/06/26 03:09:16;;;;;;;9.67;8.67;;;17.70;99.90;;;;;;5020988;28;20177;-78
2023/06/26 03:11:43;;;;;;;10.37;7.90;;;17.60;99.90;;;;;;5025306;28;20654;-78
2023/06/26 03:14:09;;;;;;;9.13;8.00;;;17.60;99.90;;;;;;5020949;28;20584;-77
2023/06/26 03:16:34;;;;;;;9.60;8.53;;;17.60;99.90;;;;;;5020258;28;20221;-77
2023/06/26 03:19:00;;;;;;;9.40;7.83;;;17.60;99.90;;;;;;5032031;28;20200;-77
2023/06/26 03:21:26;;;;;;;9.13;7.40;;;17.60;99.90;;;;;;5022888;28;20178;-79
2023/06/26 03:23:51;;;;;;;12.23;8.13;;;17.60;99.90;;;;;;5040984;28;20168;-78
2023/06/26 03:26:20;;;;;;;8.37;7.57;;;17.70;99.90;;;;;;5040305;28;20525;-78
2023/06/26 03:28:45;;;;;;;8.53;7.73;;;17.60;99.90;;;;;;5040599;28;20536;-79
2023/06/26 03:31:11;;;;;;;9.03;7.73;;;17.60;99.90;;;;;;5040738;28;20173;-77
2023/06/26 03:33:38;;;;;;;8.50;7.70;;;17.60;99.90;;;;;;5040664;28;20178;-75
2023/06/26 03:36:06;;;;;;;9.33;8.30;;;17.60;99.90;;;;;;5025714;28;20640;-76
2023/06/26 03:38:32;;;;;;;9.30;8.03;;;17.70;99.90;;;;;;5049504;28;20228;-79
2023/06/26 03:40:59;;;;;;;9.30;8.40;;;17.70;99.90;;;;;;5040495;28;20256;-77
2023/06/26 03:43:28;;;;;;;8.97;7.73;;;17.70;99.90;;;;;;5041367;28;20262;-78
2023/06/26 03:45:56;;;;;;;8.67;7.80;;;17.70;99.90;;;;;;5023697;28;20191;-75
2023/06/26 03:48:22;;;;;;;9.03;8.13;;;17.70;99.90;;;;;;5041004;28;20176;-79
2023/06/26 03:50:49;;;;;;;10.13;8.27;;;17.70;99.90;;;;;;5041075;28;20196;-78
2023/06/26 03:53:16;;;;;;;9.30;7.97;;;17.70;99.90;;;;;;5040666;28;20191;-77
2023/06/26 03:55:41;;;;;;;9.03;8.10;;;17.70;99.90;;;;;;5038847;28;20176;-78
2023/06/26 03:58:07;;;;;;;10.47;8.40;;;17.60;99.90;;;;;;5039886;28;20183;-79
2023/06/26 04:00:33;;;;;;;10.77;8.63;;;17.70;99.90;;;;;;5047137;28;20226;-79
2023/06/26 04:02:58;;;;;;;9.33;8.30;;;17.60;99.90;;;;;;5049018;28;20192;-79
2023/06/26 04:05:24;;;;;;;8.90;8.00;;;17.60;99.90;;;;;;5040233;28;20173;-77
2023/06/26 04:07:53;;;;;;;9.93;8.37;;;17.70;99.90;;;;;;5040756;28;20187;-78
2023/06/26 04:10:23;;;;;;;9.17;8.23;;;17.70;99.90;;;;;;5040668;28;20275;-77
2023/06/26 04:12:56;;;;;;;9.33;8.27;;;17.80;99.90;;;;;;5050975;28;20167;-80
2023/06/26 04:15:25;;;;;;;8.47;7.67;;;17.80;99.90;;;;;;5047698;28;20254;-77
2023/06/26 04:17:53;;;;;;;10.07;8.30;;;17.80;99.90;;;;;;5023320;28;20180;-78
2023/06/26 04:20:20;;;;;;;8.87;7.97;;;17.90;99.90;;;;;;5043357;28;20208;-78
2023/06/26 04:22:46;;;;;;;8.60;7.70;;;17.90;99.90;;;;;;5042634;28;20207;-77
2023/06/26 04:25:12;;;;;;;8.13;7.33;;;17.90;99.90;;;;;;5044184;28;20183;-79
2023/06/26 04:27:38;;;;;;;9.00;8.10;;;17.90;99.90;;;;;;5045656;28;20176;-79
2023/06/26 04:30:06;;;;;;;8.80;7.90;;;18.00;99.90;;;;;;5020852;28;20521;-78
2023/06/26 04:32:32;;;;;;;9.00;7.87;;;18.00;99.90;;;;;;5038520;28;20243;-81
2023/06/26 04:34:57;;;;;;;8.23;7.43;;;18.10;99.90;;;;;;5045397;28;20199;-78
2023/06/26 04:37:24;;;;;;;9.07;8.03;;;18.10;99.90;;;;;;5046472;28;20190;-77
2023/06/26 04:39:50;;;;;;;8.47;7.57;;;18.10;99.90;;;;;;5037891;28;20207;-77
2023/06/26 04:42:16;;;;;;;8.73;7.27;;;18.10;99.90;;;;;;5039142;28;20755;-78
2023/06/26 04:44:42;;;;;;;8.30;7.50;;;18.20;99.90;;;;;;5037276;28;20263;-77
2023/06/26 04:47:08;;;;;;;10.30;7.67;;;18.30;99.90;;;;;;5038541;28;20248;-77
2023/06/26 04:49:34;;;;;;;8.43;7.53;;;18.40;99.90;;;;;;5039242;28;20252;-75
2023/06/26 04:52:00;;;;;;;8.87;7.97;;;18.40;99.90;;;;;;5045551;28;20168;-78
2023/06/26 04:54:27;;;;;;;8.23;7.43;;;18.50;99.90;;;;;;5034328;28;20184;-77
2023/06/26 04:56:53;;;;;;;8.67;7.83;;;18.60;99.90;;;;;;5025922;28;20200;-78
2023/06/26 04:59:19;;;;;;;9.03;7.97;;;18.60;99.90;;;;;;5040786;28;20248;-79
2023/06/26 05:01:47;;;;;;;8.37;7.50;;;18.80;99.90;;;;;;5043987;28;20184;-77
2023/06/26 05:04:15;;;;;;;8.40;7.60;;;18.80;99.90;;;;;;5057566;28;20169;-77
2023/06/26 05:06:40;;;;;;;8.00;7.13;;;18.90;99.90;;;;;;5058472;28;20157;-75
2023/06/26 05:09:06;;;;;;;8.50;7.70;;;19.00;99.90;;;;;;5037694;28;20178;-79
2023/06/26 05:11:32;;;;;;;9.63;7.90;;;19.00;99.90;;;;;;5036748;28;20168;-77
2023/06/26 05:13:57;;;;;;;9.30;8.40;;;19.00;99.90;;;;;;5036827;28;20224;-77
2023/06/26 05:16:23;;;;;;;8.97;8.07;;;19.00;99.90;;;;;;5035658;28;20225;-77
2023/06/26 05:18:49;;;;;;;10.00;8.00;;;19.10;99.90;;;;;;5036182;28;20207;-76
2023/06/26 05:21:16;;;;;;;8.17;7.37;;;19.10;99.90;;;;;;5035849;28;20255;-77
2023/06/26 05:23:44;;;;;;;7.97;7.27;;;19.30;99.90;;;;;;5032800;28;20187;-77
2023/06/26 05:26:10;;;;;;;9.77;7.57;;;19.30;99.90;;;;;;5035649;28;20176;-78
2023/06/26 05:28:37;;;;;;;9.00;8.10;;;19.30;99.90;;;;;;5034831;28;20184;-78
2023/06/26 05:31:04;;;;;;;8.73;7.83;;;19.30;99.90;;;;;;5035507;28;20177;-78
2023/06/26 05:33:33;;;;;;;9.13;8.17;;;19.30;99.90;;;;;;5045289;28;20252;-79
2023/06/26 05:36:02;;;;;;;8.23;7.43;;;19.30;99.90;;;;;;5021012;28;20603;-78
2023/06/26 05:38:28;;;;;;;7.93;7.13;;;19.40;99.90;;;;;;5036794;28;20640;-78
2023/06/26 05:40:54;;;;;;;8.17;7.37;;;19.50;99.90;;;;;;5038561;28;20202;-80
2023/06/26 05:43:20;;;;;;;8.63;7.80;;;19.50;99.90;;;;;;5039451;28;20256;-78
2023/06/26 05:45:48;;;;;;;10.40;8.00;;;19.70;99.90;;;;;;5035945;28;20179;-79
2023/06/26 05:48:13;;;;;;;8.03;7.23;;;19.80;99.90;;;;;;5036064;28;20177;-78
2023/06/26 05:50:41;;;;;;;8.90;8.00;;;19.70;99.90;;;;;;5037176;28;20179;-77
2023/06/26 05:53:08;;;;;;;8.70;7.80;;;19.70;99.90;;;;;;5037786;28;20184;-80
2023/06/26 05:55:34;;;;;;;8.73;7.87;;;19.90;99.90;;;;;;5043930;28;20177;-79
2023/06/26 05:58:01;;;;;;;9.27;8.00;;;20.00;99.90;;;;;;5041381;28;20172;-83
2023/06/26 06:00:27;;;;;;;8.87;7.70;;;20.10;99.90;;;;;;5037033;28;20624;-83
2023/06/26 06:02:54;;;;;;;10.07;7.17;;;20.20;99.90;;;;;;5035895;28;20198;-81
2023/06/26 06:05:23;;;;;;;8.70;7.77;;;20.30;99.90;;;;;;5018590;28;20531;-83
2023/06/26 06:07:50;;;;;;;10.53;7.70;;;20.40;99.90;;;;;;5037117;28;20204;-79
2023/06/26 06:10:17;;;;;;;8.53;7.37;;;20.50;99.90;;;;;;5037392;28;20196;-78
2023/06/26 06:12:43;;;;;;;8.13;7.33;;;20.60;99.90;;;;;;5020195;28;20177;-83
2023/06/26 06:15:09;;;;;;;7.87;7.07;;;20.70;99.90;;;;;;5018345;28;20187;-84
2023/06/26 06:17:34;;;;;;;8.37;7.57;;;20.60;99.90;;;;;;5035325;28;20206;-84
2023/06/26 06:20:00;;;;;;;8.17;7.43;;;20.70;99.90;;;;;;5036119;28;20208;-82
2023/06/26 06:22:26;;;;;;;8.27;7.40;;;20.80;99.90;;;;;;5037241;28;20628;-84
2023/06/26 06:24:52;;;;;;;8.87;7.47;;;20.80;99.90;;;;;;5034826;28;20204;-82
2023/06/26 06:27:18;;;;;;;7.93;6.97;;;20.90;99.90;;;;;;5017910;28;20464;-83
2023/06/26 06:29:43;;;;;;;8.27;7.47;;;21.00;99.90;;;;;;5018115;28;20200;-82
2023/06/26 06:32:09;;;;;;;9.57;8.23;;;21.20;99.90;;;;;;5025507;28;20176;-82
2023/06/26 06:34:35;;;;;;;8.13;7.43;;;21.30;99.90;;;;;;5057892;28;20195;-83
2023/06/26 06:37:02;;;;;;;7.53;6.80;;;21.50;99.90;;;;;;5055616;28;20180;-82
2023/06/26 06:39:28;;;;;;;8.03;7.20;;;21.50;99.90;;;;;;5043953;28;20275;-83
2023/06/26 06:41:54;;;;;;;10.00;7.57;;;21.60;99.90;;;;;;5022380;28;20640;-83
2023/06/26 06:44:20;;;;;;;7.73;7.03;;;21.70;99.90;;;;;;5036199;28;20179;-83
2023/06/26 06:46:45;;;;;;;8.30;7.23;;;21.80;99.90;;;;;;5038059;28;20199;-84
2023/06/26 06:49:11;;;;;;;7.10;6.40;;;22.00;99.90;;;;;;5036275;28;20180;-83
2023/06/26 06:51:37;;;;;;;8.27;7.10;;;22.20;99.90;;;;;;5036862;28;20184;-85
2023/06/26 06:54:03;;;;;;;8.80;7.30;;;22.40;99.90;;;;;;5021785;28;20205;-83
2023/06/26 06:56:28;;;;;;;8.23;7.20;;;22.40;99.90;;;;;;5039333;28;20625;-84
2023/06/26 06:58:54;;;;;;;7.28;6.57;;;22.50;99.90;;;;;;5041242;28;20208;-82
2023/06/26 07:01:20;;;;;;;7.68;6.97;;;22.50;99.90;;;;;;5042553;28;20215;-84
2023/06/26 07:03:46;;;;;;;8.65;7.00;;;22.60;99.90;;;;;;5021635;28;20278;-83
2023/06/26 07:06:11;;;;;;;7.45;6.80;;;22.60;99.90;;;;;;5037381;28;20184;-83
2023/06/26 07:08:38;;;;;;;7.75;7.05;;;22.70;99.90;;;;;;5035611;28;20333;-83
2023/06/26 07:11:04;;;;;;;7.47;6.77;;;22.90;99.90;;;;;;5020958;28;20248;-83
2023/06/26 07:13:29;;;;;;;7.78;6.50;;;23.10;99.90;;;;;;5019801;28;20215;-83
2023/06/26 07:15:55;;;;;;;7.82;6.95;;;23.10;99.90;;;;;;5035415;28;20228;-83
2023/06/26 07:18:21;;;;;;;8.20;7.22;;;23.30;99.90;;;;;;5036357;28;20573;-83
2023/06/26 07:20:46;;;;;;;7.80;7.10;;;23.30;99.90;;;;;;5050705;28;20216;-86
2023/06/26 07:23:12;;;;;;;8.15;7.35;;;23.40;99.90;;;;;;5027514;28;20223;-84
2023/06/26 07:25:38;;;;;;;8.35;7.53;;;23.50;99.90;;;;;;5020390;28;20176;-84
2023/06/26 07:28:09;;;;;;;7.15;6.45;;;23.50;99.90;;;;;;5039736;28;20177;-83
2023/06/26 07:30:35;;;;;;;7.30;6.70;;;23.50;99.90;;;;;;5039172;28;20614;-83
2023/06/26 07:33:00;;;;;;;7.47;6.80;;;23.60;99.90;;;;;;5056952;28;20191;-83
2023/06/26 07:35:27;;;;;;;7.22;6.53;;;23.80;99.90;;;;;;5040592;28;20181;-84
2023/06/26 07:37:53;;;;;;;6.78;6.18;;;23.80;99.90;;;;;;5019846;28;20291;-84
2023/06/26 07:40:19;;;;;;;7.15;6.45;;;23.90;99.90;;;;;;5039934;28;20231;-84
2023/06/26 07:42:46;;;;;;;7.90;6.68;;;24.00;99.80;;;;;;5033336;28;20172;-85
2023/06/26 07:45:12;;;;;;;6.53;6.03;;;24.10;99.90;;;;;;5040944;28;20180;-83
2023/06/26 07:47:41;;;;;;;6.68;6.07;;;24.20;99.90;;;;;;5036239;28;20176;-83
2023/06/26 07:50:07;;;;;;;7.38;6.68;;;24.20;98.80;;;;;;5021395;28;20390;-84
2023/06/26 07:52:34;;;;;;;6.15;5.55;;;24.20;98.50;;;;;;5044323;28;20601;-83
2023/06/26 07:55:00;;;;;;;6.32;5.72;;;24.00;97.80;;;;;;5042328;28;20177;-83
2023/06/26 07:57:27;;;;;;;7.70;6.20;;;24.10;98.40;;;;;;5022346;28;20208;-82
2023/06/26 07:59:53;;;;;;;9.43;6.10;;;24.20;98.60;;;;;;5038846;28;20247;-83
2023/06/26 08:02:18;;;;;;;7.18;6.47;;;24.20;98.30;;;;;;5036836;28;20618;-85
2023/06/26 08:04:44;;;;;;;6.65;6.15;;;24.20;98.20;;;;;;5037992;28;20211;-83
2023/06/26 08:07:10;;;;;;;6.50;5.90;;;24.30;98.30;;;;;;5036581;28;20180;-83
2023/06/26 08:09:36;;;;;;;6.38;5.88;;;24.30;98.20;;;;;;5037702;28;20176;-84
2023/06/26 08:12:02;;;;;;;6.03;5.47;;;24.50;98.20;;;;;;5037073;28;20180;-83
2023/06/26 08:14:28;;;;;;;6.35;5.78;;;24.60;99.40;;;;;;5037395;28;20203;-83
2023/06/26 08:16:54;;;;;;;6.00;5.50;;;24.70;98.20;;;;;;5040028;28;20232;-84
2023/06/26 08:19:20;;;;;;;6.45;5.85;;;24.80;98.40;;;;;;5038615;28;20204;-84
2023/06/26 08:21:47;;;;;;;5.93;5.43;;;24.90;98.40;;;;;;5037595;28;20183;-84
2023/06/26 08:24:13;;;;;;;6.40;5.90;;;25.00;98.70;;;;;;5038603;28;20168;-84
2023/06/26 08:26:40;;;;;;;6.25;5.75;;;25.00;98.00;;;;;;5041482;28;20532;-84
2023/06/26 08:29:09;;;;;;;7.13;6.43;;;25.10;97.20;;;;;;5043337;28;20199;-83
2023/06/26 08:31:35;;;;;;;6.35;5.85;;;25.10;96.50;;;;;;5024449;28;20734;-84
2023/06/26 08:34:05;;;;;;;6.00;5.57;;;25.10;96.70;;;;;;5040057;28;20180;-85
2023/06/26 08:36:31;;;;;;;7.68;6.45;;;25.00;97.10;;;;;;5025222;28;20184;-84
2023/06/26 08:38:57;;;;;;;5.97;5.47;;;25.00;97.40;;;;;;5041407;28;20204;-83
2023/06/26 08:41:23;;;;;;;7.88;6.20;;;25.10;97.70;;;;;;5037631;28;20197;-83
2023/06/26 08:43:52;;;;;;;6.90;6.32;;;25.20;98.00;;;;;;5038174;28;20169;-84
2023/06/26 08:46:19;;;;;;;6.57;5.97;;;25.30;98.10;;;;;;5038036;28;20176;-84
2023/06/26 08:48:48;;;;;;;6.03;5.43;;;25.30;98.00;;;;;;5019854;28;20176;-84
2023/06/26 08:51:17;;;;;;;6.05;5.35;;;25.30;97.40;;;;;;5019141;28;20238;-84
2023/06/26 08:53:58;;;;;;;7.00;6.30;;;25.40;97.00;;;;;;5019287;28;20173;-85
2023/06/26 08:56:27;;;;;;;8.05;6.38;;;25.40;97.30;;;;;;5037065;28;20161;-83
2023/06/26 08:58:54;;;;;;;7.28;5.97;;;25.30;97.20;;;;;;5045425;28;20188;-86
2023/06/26 09:01:21;;;;;;;6.60;6.00;;;25.20;96.90;;;;;;5036421;28;20181;-85
2023/06/26 09:03:47;;;;;;;7.00;6.40;;;25.20;97.00;;;;;;5022621;28;20180;-84
2023/06/26 09:06:13;;;;;;;7.15;6.45;;;25.20;96.80;;;;;;5020966;28;20180;-84
2023/06/26 09:08:38;;;;;;;6.22;5.80;;;25.30;96.60;;;;;;5039502;28;20203;-84
2023/06/26 09:11:04;;;;;;;6.65;5.97;;;25.40;96.30;;;;;;5052351;28;20156;-85
2023/06/26 09:13:30;;;;;;;6.25;5.75;;;25.40;96.30;;;;;;5034642;28;20179;-85
2023/06/26 09:15:56;;;;;;;6.75;6.18;;;25.40;96.10;;;;;;5039942;28;20802;-84
2023/06/26 09:18:22;;;;;;;7.95;6.05;;;25.50;96.00;;;;;;5020753;28;20181;-83
2023/06/26 09:20:49;;;;;;;6.80;6.20;;;25.60;96.70;;;;;;5041149;28;20189;-85
2023/06/26 09:23:15;;;;;;;6.22;5.72;;;25.70;97.40;;;;;;5022346;28;20169;-85
2023/06/26 09:25:42;;;;;;;6.35;5.85;;;25.90;97.60;;;;;;5038977;28;20522;-85
2023/06/26 09:28:09;;;;;;;6.53;6.03;;;25.90;96.80;;;;;;5021634;28;20176;-84
2023/06/26 09:30:36;;;;;;;7.53;6.88;;;26.00;96.80;;;;;;5040444;28;20176;-84
2023/06/26 09:33:19;;;;;;;6.68;6.18;;;26.10;96.60;;;;;;5038991;28;20175;-85
2023/06/26 09:35:47;;;;;;;6.85;6.15;;;26.10;96.30;;;;;;5020060;28;20548;-84
2023/06/26 09:38:14;;;;;;;7.15;6.45;;;26.00;95.70;;;;;;5022896;28;20187;-85
2023/06/26 09:40:40;;;;;;;6.82;6.32;;;25.80;95.50;;;;;;5019182;28;20582;-84
2023/06/26 09:43:07;;;;;;;6.28;5.78;;;26.00;95.90;;;;;;5020087;28;20173;-85
2023/06/26 09:45:36;;;;;;;5.35;4.95;;;26.10;96.20;;;;;;5037546;28;20263;-83
2023/06/26 09:48:03;;;;;;;5.35;4.85;;;26.10;94.00;;;;;;5020819;28;20182;-84
2023/06/26 09:50:29;;;;;;;4.75;4.45;;;26.00;92.50;;;;;;5023472;28;20184;-84
2023/06/26 09:52:56;;;;;;;5.88;5.38;;;26.00;92.80;;;;;;5037715;28;20203;-85
2023/06/26 09:55:22;;;;;;;5.53;4.97;;;26.10;93.30;;;;;;5020808;28;20173;-84
2023/06/26 09:57:50;;;;;;;5.43;4.93;;;26.00;92.50;;;;;;5037908;28;20241;-84
2023/06/26 10:00:16;;;;;;;5.45;4.45;;;26.00;93.00;;;;;;5044925;28;20260;-87
2023/06/26 10:02:42;;;;;;;5.28;4.70;;;26.00;92.30;;;;;;5039101;28;20153;-85
2023/06/26 10:05:08;;;;;;;6.13;5.63;;;26.00;93.00;;;;;;5038682;28;20192;-85
2023/06/26 10:07:36;;;;;;;6.43;5.82;;;26.20;94.80;;;;;;5030799;28;20231;-85
2023/06/26 10:10:04;;;;;;;6.97;6.28;;;26.40;96.50;;;;;;5021964;28;20181;-84
2023/06/26 10:12:31;;;;;;;7.35;6.65;;;26.50;96.20;;;;;;5030757;28;20173;-84
2023/06/26 10:14:58;;;;;;;6.63;6.10;;;26.50;96.00;;;;;;5017670;28;20264;-85
2023/06/26 10:17:28;;;;;;;6.15;5.65;;;26.50;95.80;;;;;;5016929;28;20780;-84
2023/06/26 10:19:57;;;;;;;6.43;5.82;;;26.60;96.20;;;;;;5016875;28;20272;-86
2023/06/26 10:22:29;;;;;;;5.93;5.47;;;26.60;96.20;;;;;;5017393;28;20169;-83
2023/06/26 10:24:58;;;;;;;6.15;5.65;;;26.50;95.60;;;;;;5019577;28;20169;-84
2023/06/26 10:27:27;;;;;;;6.55;5.97;;;26.60;95.50;;;;;;5023918;28;20173;-84
2023/06/26 10:30:02;;;;;;;5.93;5.53;;;26.50;95.20;;;;;;5021706;28;20177;-85
2023/06/26 10:32:29;;;;;;;5.97;5.38;;;26.60;95.00;;;;;;5017337;28;20259;-84
2023/06/26 10:34:55;;;;;;;7.00;6.43;;;26.70;95.70;;;;;;5018058;28;20196;-84
2023/06/26 10:37:40;;;;;;;6.60;6.00;;;26.90;96.40;;;;;;5021664;28;20203;-84
2023/06/26 10:40:06;;;;;;;6.47;5.90;;;26.90;96.30;;;;;;5030797;28;20209;-85
2023/06/26 10:42:37;;;;;;;6.20;5.63;;;27.10;96.80;;;;;;5021922;28;20528;-84
2023/06/26 10:45:11;;;;;;;5.72;5.28;;;27.20;96.70;;;;;;5018782;28;20256;-83
2023/06/26 10:47:40;;;;;;;5.72;5.22;;;27.40;95.20;;;;;;5019768;28;20173;-83
2023/06/26 10:50:26;;;;;;;5.50;5.10;;;27.40;93.50;;;;;;5029629;28;20185;-84
2023/06/26 10:53:19;;;;;;;8.40;5.72;;;27.40;93.30;;;;;;5032846;28;20173;-83
2023/06/26 10:55:54;;;;;;;5.70;5.20;;;27.30;94.30;;;;;;5020802;28;20158;-83
2023/06/26 10:58:41;;;;;;;5.88;5.47;;;27.40;94.00;;;;;;5018497;28;20184;-79
2023/06/26 11:01:22;;;;;;;5.57;5.07;;;27.40;93.80;;;;;;5014959;28;20181;-83
2023/06/26 11:04:14;;;;;;;5.80;5.40;;;27.30;94.90;;;;;;5014504;28;20227;-81
2023/06/26 11:06:41;;;;;;;5.47;5.07;;;27.40;95.20;;;;;;5014819;28;20184;-81
2023/06/26 11:09:10;;;;;;;6.35;5.85;;;27.70;95.30;;;;;;5015907;28;20177;-81
2023/06/26 11:11:52;;;;;;;6.10;5.60;;;27.90;95.40;;;;;;5014405;28;20588;-81
2023/06/26 11:14:27;;;;;;;6.05;5.50;;;27.90;95.10;;;;;;5017479;28;20208;-85
2023/06/26 11:16:56;;;;;;;5.80;5.40;;;27.90;94.90;;;;;;5021559;28;20217;-82
2023/06/26 11:19:21;;;;;;;5.38;4.97;;;27.70;95.30;;;;;;5014584;28;20216;-82
2023/06/26 11:21:47;;;;;;;5.60;5.20;;;27.60;94.90;;;;;;5016235;28;20641;-82
2023/06/26 11:24:13;;;;;;;5.45;5.05;;;27.50;95.10;;;;;;5015361;28;20208;-82
2023/06/26 11:26:41;;;;;;;6.05;5.40;;;27.40;94.30;;;;;;5015119;28;20173;-81
2023/06/26 11:29:07;;;;;;;5.65;5.15;;;27.30;94.20;;;;;;5014264;28;20177;-84
2023/06/26 11:31:35;;;;;;;7.20;5.53;;;27.20;94.70;;;;;;5016732;28;20177;-83
2023/06/26 11:34:03;;;;;;;6.18;5.68;;;27.50;95.60;;;;;;5014966;28;20228;-82
2023/06/26 11:36:30;;;;;;;5.93;5.43;;;27.90;94.60;;;;;;5014559;28;20173;-83
2023/06/26 11:38:57;;;;;;;5.72;5.32;;;28.20;94.10;;;;;;5014895;28;20205;-84
2023/06/26 11:41:29;;;;;;;5.18;4.82;;;28.40;94.00;;;;;;5013628;28;20180;-83
2023/06/26 11:43:54;;;;;;;7.53;6.93;;;28.60;94.30;;;;;;5014455;28;20217;-85
2023/06/26 11:46:21;;;;;;;7.40;6.80;;;28.70;93.70;;;;;;5013037;28;20656;-84
2023/06/26 11:48:48;;;;;;;6.30;5.68;;;28.60;94.50;;;;;;5012819;28;20185;-82
2023/06/26 11:51:18;;;;;;;6.15;5.55;;;28.60;93.40;;;;;;5014417;28;20191;-82
2023/06/26 11:53:45;;;;;;;6.65;6.05;;;28.60;93.80;;;;;;5014580;28;20177;-83
2023/06/26 11:56:13;;;;;;;6.20;5.70;;;28.70;93.40;;;;;;5014278;28;20169;-82
2023/06/26 11:59:17;;;;;;;5.88;5.47;;;28.70;93.60;;;;;;5014102;28;20181;-83
2023/06/26 12:01:46;;;;;;;5.55;5.15;;;28.70;93.40;;;;;;4956431;28;20300;-82
2023/06/26 12:04:15;;;;;;;5.50;5.10;;;28.70;93.40;;;;;;4972653;28;20237;-83
2023/06/26 12:06:44;;;;;;;5.70;5.30;;;28.80;93.70;;;;;;4972793;28;20194;-82
2023/06/26 12:09:12;;;;;;;5.00;4.60;;;28.90;93.40;;;;;;4972289;28;20174;-84
2023/06/26 12:11:42;;;;;;;5.28;4.95;;;29.10;93.40;;;;;;4972491;28;20209;-83
2023/06/26 12:14:09;;;;;;;5.40;5.00;;;29.20;93.60;;;;;;4972811;28;20185;-83
2023/06/26 12:16:36;;;;;;;5.03;4.63;;;29.20;92.30;;;;;;4991590;28;20308;-83
2023/06/26 12:19:04;;;;;;;5.55;5.15;;;29.30;92.90;;;;;;4985291;28;20350;-81
2023/06/26 12:21:42;;;;;;;4.93;4.53;;;29.30;92.10;;;;;;4975427;28;20550;-83
2023/06/26 12:24:10;;;;;;;5.30;5.00;;;29.20;91.90;;;;;;4959044;28;20175;-82
2023/06/26 12:26:36;;;;;;;5.40;5.00;;;29.20;92.40;;;;;;4972859;28;20194;-82
2023/06/26 12:29:06;;;;;;;5.60;5.10;;;29.20;91.70;;;;;;4989036;28;20270;-82
2023/06/26 12:31:33;;;;;;;5.80;5.20;;;29.10;92.10;;;;;;4985498;28;20247;-82
2023/06/26 12:33:59;;;;;;;5.70;5.30;;;29.00;92.20;;;;;;5014346;28;20176;-84
2023/06/26 12:36:25;;;;;;;5.40;5.00;;;28.80;93.20;;;;;;5014275;28;20173;-81
2023/06/26 12:38:53;;;;;;;5.05;4.65;;;28.70;92.60;;;;;;5014409;28;20611;-83
2023/06/26 12:41:20;;;;;;;5.03;4.72;;;28.60;91.70;;;;;;5015768;28;20180;-81
2023/06/26 12:43:46;;;;;;;5.20;4.80;;;28.50;91.60;;;;;;5016087;28;20188;-83
2023/06/26 12:46:12;;;;;;;5.72;5.22;;;28.40;92.10;;;;;;5017500;28;20169;-83
2023/06/26 12:48:47;;;;;;;4.72;4.43;;;28.30;91.30;;;;;;5018667;28;20181;-81
2023/06/26 12:51:19;;;;;;;5.13;4.65;;;28.30;91.60;;;;;;5017753;28;20586;-82
2023/06/26 12:53:44;;;;;;;5.43;4.97;;;28.30;92.00;;;;;;5016238;28;20174;-84